Time;durP1;ratioP1;P1;durP2;ratioP2;P2;SDS_P1;SDS_P2;PMS_P1;PMS_P2;Temp;Humidity;BMP_temperature;BMP_pressure;BME280_temperature;BME280_humidity;BME280_pressure;Samples;Min_cycle;Max_cycle;Signal;HPM_P1;HPM_P2
2022/11/12 15:13:26;;;;;;;11.20;5.78;;;16.90;68.80;;;;;;6179294;22;1921381;-71
2022/11/12 15:16:03;;;;;;;11.85;4.90;;;16.90;68.40;;;;;;6182645;23;20430;-71
2022/11/12 15:18:31;;;;;;;11.85;5.40;;;16.90;69.30;;;;;;6182142;23;20056;-70
2022/11/12 15:21:09;;;;;;;11.00;6.25;;;16.80;68.60;;;;;;6182225;23;20033;-69
2022/11/12 15:23:35;;;;;;;11.10;5.82;;;16.80;69.50;;;;;;6183548;23;20005;-70
2022/11/12 15:26:01;;;;;;;10.55;5.55;;;16.80;68.80;;;;;;6185935;23;20008;-69
2022/11/12 15:28:27;;;;;;;11.85;5.25;;;16.80;68.70;;;;;;6185857;23;20008;-71
2022/11/12 15:31:18;;;;;;;14.50;6.40;;;16.80;68.90;;;;;;6186194;23;20009;-70
2022/11/12 15:33:43;;;;;;;13.57;5.82;;;16.70;69.50;;;;;;6209574;23;20311;-70
2022/11/12 15:36:18;;;;;;;9.52;5.18;;;16.70;69.00;;;;;;6186173;23;20004;-69
2022/11/12 15:38:51;;;;;;;8.80;4.82;;;16.60;68.80;;;;;;6184257;23;20311;-70
2022/11/12 15:41:26;;;;;;;8.80;4.97;;;16.70;68.90;;;;;;6186274;23;20025;-68
2022/11/12 15:43:52;;;;;;;11.45;5.80;;;16.60;69.80;;;;;;6210836;23;20036;-70
2022/11/12 15:46:18;;;;;;;11.05;5.70;;;16.60;69.40;;;;;;6184158;23;20008;-71
2022/11/12 15:48:44;;;;;;;11.57;5.90;;;16.60;69.70;;;;;;6184424;23;20005;-68
2022/11/12 15:51:10;;;;;;;12.15;5.97;;;16.50;72.50;;;;;;6184215;23;20013;-68
2022/11/12 15:53:36;;;;;;;9.88;5.13;;;16.50;74.30;;;;;;6209369;23;20009;-70
2022/11/12 15:56:03;;;;;;;18.70;6.07;;;16.50;73.70;;;;;;6185738;23;20054;-70
2022/11/12 15:58:34;;;;;;;11.90;6.05;;;16.40;70.80;;;;;;6185836;23;20092;-72
2022/11/12 16:01:00;;;;;;;13.13;6.95;;;16.40;70.40;;;;;;6185853;23;20032;-72
2022/11/12 16:03:25;;;;;;;30.13;17.77;;;16.40;70.70;;;;;;6186003;23;20072;-71
2022/11/12 16:05:51;;;;;;;45.50;28.27;;;16.30;70.80;;;;;;6184044;23;20048;-70
2022/11/12 16:08:17;;;;;;;31.40;19.88;;;16.30;70.90;;;;;;6186156;23;20076;-70
2022/11/12 16:10:45;;;;;;;35.20;24.48;;;16.30;71.20;;;;;;6185368;23;20009;-70
2022/11/12 16:13:19;;;;;;;24.85;14.98;;;16.20;71.20;;;;;;6183635;23;20009;-68
2022/11/12 16:15:45;;;;;;;19.90;12.77;;;16.20;71.40;;;;;;6185519;23;20020;-69
2022/11/12 16:18:11;;;;;;;22.80;14.85;;;16.20;71.30;;;;;;6185190;23;19997;-70
2022/11/12 16:20:37;;;;;;;23.73;16.05;;;16.20;72.10;;;;;;6183858;23;20009;-69
2022/11/12 16:23:03;;;;;;;21.70;16.02;;;16.20;71.50;;;;;;6185378;23;20001;-68
2022/11/12 16:25:32;;;;;;;17.13;11.57;;;16.10;71.70;;;;;;6185104;23;20092;-68
2022/11/12 16:27:59;;;;;;;16.98;10.23;;;16.10;71.70;;;;;;6184095;23;20340;-70
2022/11/12 16:30:28;;;;;;;12.27;7.03;;;16.10;71.80;;;;;;6183536;23;20024;-73
2022/11/12 16:32:59;;;;;;;15.82;7.38;;;16.10;72.40;;;;;;6184295;23;20051;-69
2022/11/12 16:35:30;;;;;;;12.80;7.30;;;16.10;71.80;;;;;;6183127;23;20032;-70
2022/11/12 16:37:56;;;;;;;12.90;7.43;;;16.20;71.80;;;;;;6208336;23;20005;-72
2022/11/12 16:40:25;;;;;;;12.30;7.22;;;16.10;71.60;;;;;;6183229;23;20097;-70
2022/11/12 16:42:51;;;;;;;16.58;6.65;;;16.10;71.90;;;;;;6184296;23;20008;-72
2022/11/12 16:45:24;;;;;;;12.50;7.22;;;16.10;72.10;;;;;;6184892;23;20009;-72
2022/11/12 16:47:53;;;;;;;12.75;6.13;;;16.10;72.00;;;;;;6184522;23;20051;-71
2022/11/12 16:50:22;;;;;;;13.13;7.07;;;16.00;72.00;;;;;;6185146;23;20062;-71
2022/11/12 16:52:48;;;;;;;11.73;6.57;;;16.00;72.00;;;;;;6184832;23;20001;-71
2022/11/12 16:55:15;;;;;;;16.63;7.07;;;16.00;72.20;;;;;;6208664;23;20028;-71
2022/11/12 16:57:41;;;;;;;14.98;6.93;;;16.00;72.40;;;;;;6184881;23;19997;-71
2022/11/12 17:00:11;;;;;;;15.63;7.10;;;16.00;72.60;;;;;;6184326;23;20005;-70
2022/11/12 17:02:37;;;;;;;11.52;7.13;;;15.90;72.70;;;;;;6183012;23;20001;-70
2022/11/12 17:05:06;;;;;;;18.95;7.57;;;15.90;72.50;;;;;;6185267;23;20028;-70
2022/11/12 17:07:32;;;;;;;12.10;6.65;;;15.90;72.70;;;;;;6181880;23;20028;-72
2022/11/12 17:09:58;;;;;;;17.67;7.90;;;15.80;72.70;;;;;;6183181;23;20441;-71
2022/11/12 17:12:24;;;;;;;15.48;7.38;;;15.80;73.00;;;;;;6183260;23;20016;-70
2022/11/12 17:14:49;;;;;;;13.57;7.75;;;15.80;73.10;;;;;;6185044;23;20019;-71
2022/11/12 17:17:15;;;;;;;13.18;7.38;;;15.80;73.20;;;;;;6183116;23;20013;-71
2022/11/12 17:19:41;;;;;;;16.25;7.78;;;15.70;73.00;;;;;;6184534;23;20363;-71
2022/11/12 17:22:06;;;;;;;13.80;7.93;;;15.70;73.10;;;;;;6183330;23;20055;-70
2022/11/12 17:24:32;;;;;;;16.35;7.72;;;15.60;73.00;;;;;;6182934;23;20013;-70
2022/11/12 17:26:59;;;;;;;15.63;7.78;;;15.60;73.50;;;;;;6184893;23;20452;-71
2022/11/12 17:29:25;;;;;;;13.57;8.52;;;15.60;73.60;;;;;;6183162;23;20223;-70
2022/11/12 17:31:51;;;;;;;15.52;8.60;;;15.50;73.80;;;;;;6207474;23;20378;-70
2022/11/12 17:34:17;;;;;;;15.90;9.38;;;15.50;73.70;;;;;;6182618;23;20434;-71
2022/11/12 17:36:43;;;;;;;14.30;9.20;;;15.50;74.10;;;;;;6184736;23;20010;-71
2022/11/12 17:39:10;;;;;;;16.48;9.25;;;15.50;74.20;;;;;;6182577;23;20038;-71
2022/11/12 17:41:36;;;;;;;20.67;10.52;;;15.50;74.30;;;;;;6208095;23;20066;-71
2022/11/12 17:44:02;;;;;;;14.05;9.73;;;15.40;74.30;;;;;;6183232;23;20119;-70
2022/11/12 17:46:28;;;;;;;19.42;10.63;;;15.40;74.60;;;;;;6184369;23;20032;-69
2022/11/12 17:48:54;;;;;;;18.85;11.18;;;15.40;74.90;;;;;;6184484;23;19997;-72
2022/11/12 17:51:23;;;;;;;20.13;12.50;;;15.30;74.80;;;;;;6182949;23;20067;-71
2022/11/12 17:53:48;;;;;;;20.90;11.77;;;15.30;75.10;;;;;;6184681;23;20421;-70
2022/11/12 17:56:20;;;;;;;21.33;12.57;;;15.30;75.40;;;;;;6182834;23;20036;-71
2022/11/12 17:58:47;;;;;;;23.17;12.55;;;15.30;75.50;;;;;;6184722;23;20003;-71
2022/11/12 18:01:24;;;;;;;17.95;12.05;;;15.30;75.70;;;;;;6182829;23;20060;-72
2022/11/12 18:03:52;;;;;;;19.45;12.13;;;15.30;75.70;;;;;;6184274;23;20001;-72
2022/11/12 18:06:23;;;;;;;18.95;12.00;;;15.30;75.90;;;;;;6184648;23;20039;-71
2022/11/12 18:08:59;;;;;;;17.95;11.70;;;15.30;76.40;;;;;;6184578;23;20001;-71
2022/11/12 18:11:26;;;;;;;20.45;12.32;;;15.30;76.60;;;;;;6184551;23;20068;-70
2022/11/12 18:13:53;;;;;;;21.02;12.38;;;15.30;76.50;;;;;;6182959;23;20462;-69
2022/11/12 18:16:27;;;;;;;23.48;12.35;;;15.30;76.90;;;;;;6183028;23;20084;-69
2022/11/12 18:18:54;;;;;;;22.95;13.38;;;15.20;77.00;;;;;;6182988;23;20004;-70
2022/11/12 18:21:21;;;;;;;22.55;13.75;;;15.20;76.90;;;;;;6182895;23;20001;-70
2022/11/12 18:23:46;;;;;;;22.83;13.57;;;15.20;77.20;;;;;;6183855;23;20005;-71
2022/11/12 18:26:14;;;;;;;24.08;13.48;;;15.20;77.20;;;;;;6182462;23;20012;-69
2022/11/12 18:28:41;;;;;;;22.77;13.90;;;15.20;77.50;;;;;;6182632;23;20060;-70
2022/11/12 18:31:09;;;;;;;18.17;12.82;;;15.20;77.80;;;;;;6182385;23;20084;-70
2022/11/12 18:33:36;;;;;;;26.75;13.43;;;15.10;77.90;;;;;;6182638;23;20005;-69
2022/11/12 18:36:24;;;;;;;24.20;13.70;;;15.20;78.10;;;;;;6182640;23;20035;-69
2022/11/12 18:38:51;;;;;;;21.17;14.30;;;15.20;77.70;;;;;;6182522;23;20005;-69
2022/11/12 18:41:24;;;;;;;22.90;14.95;;;15.20;78.10;;;;;;6182960;23;20482;-70
2022/11/12 18:43:54;;;;;;;21.63;13.85;;;15.20;78.30;;;;;;6182179;23;20008;-70
2022/11/12 18:46:20;;;;;;;26.15;15.40;;;15.20;78.40;;;;;;6182173;23;20089;-70
2022/11/12 18:48:46;;;;;;;23.20;15.02;;;15.20;78.40;;;;;;6183571;23;20001;-71
2022/11/12 18:51:14;;;;;;;25.05;16.52;;;15.20;78.70;;;;;;6182149;23;20064;-72
2022/11/12 18:53:42;;;;;;;25.55;16.02;;;15.10;78.70;;;;;;6184408;23;20021;-75
2022/11/12 18:56:15;;;;;;;26.63;16.67;;;15.10;78.90;;;;;;6182580;23;20012;-78
2022/11/12 18:58:41;;;;;;;28.83;17.05;;;15.10;79.20;;;;;;6186599;23;20005;-78
2022/11/12 19:01:10;;;;;;;30.50;17.80;;;15.00;79.40;;;;;;6186200;23;20059;-71
2022/11/12 19:03:36;;;;;;;31.83;19.17;;;15.00;79.50;;;;;;6183957;23;20391;-73
2022/11/12 19:06:04;;;;;;;27.90;18.67;;;15.00;79.60;;;;;;6184157;23;20064;-72
2022/11/12 19:08:30;;;;;;;29.92;19.75;;;14.90;79.80;;;;;;6184437;23;20012;-70
2022/11/12 19:11:04;;;;;;;29.13;18.88;;;14.90;80.10;;;;;;6184413;23;20032;-70
2022/11/12 19:13:30;;;;;;;32.50;20.48;;;14.90;80.50;;;;;;6184315;23;20397;-69
2022/11/12 19:16:10;;;;;;;29.67;21.90;;;14.90;80.60;;;;;;6185703;23;20326;-70
2022/11/12 19:18:37;;;;;;;31.98;20.92;;;14.80;80.80;;;;;;6186033;23;20373;-71
2022/11/12 19:21:07;;;;;;;31.23;20.98;;;14.80;80.90;;;;;;6183726;23;20047;-70
2022/11/12 19:23:33;;;;;;;31.25;21.52;;;14.80;81.20;;;;;;6185875;23;20445;-69
2022/11/12 19:26:04;;;;;;;29.20;22.50;;;14.80;81.90;;;;;;6184448;23;20009;-71
2022/11/12 19:28:30;;;;;;;37.88;22.63;;;14.80;81.70;;;;;;6185925;23;20012;-68
2022/11/12 19:30:57;;;;;;;32.03;23.15;;;14.80;82.10;;;;;;6185738;23;20009;-70
2022/11/12 19:33:23;;;;;;;34.17;22.92;;;14.80;81.90;;;;;;6185849;23;20012;-71
2022/11/12 19:35:49;;;;;;;35.53;22.13;;;14.70;82.00;;;;;;6184290;23;20001;-74
2022/11/12 19:38:16;;;;;;;36.05;24.75;;;14.70;82.40;;;;;;6186002;23;20055;-72
2022/11/12 19:40:42;;;;;;;37.35;25.02;;;14.70;83.00;;;;;;6186012;23;20043;-71
2022/11/12 19:43:07;;;;;;;34.40;24.65;;;14.70;82.50;;;;;;6186011;23;20009;-73
2022/11/12 19:45:33;;;;;;;47.67;25.55;;;14.60;82.80;;;;;;6186099;23;20004;-69
2022/11/12 19:47:59;;;;;;;37.85;24.52;;;14.60;83.00;;;;;;6185639;23;20426;-70
2022/11/12 19:50:24;;;;;;;37.63;22.95;;;14.60;83.00;;;;;;6185260;23;20075;-71
2022/11/12 19:52:53;;;;;;;33.92;22.10;;;14.60;83.20;;;;;;6183931;23;20005;-70
2022/11/12 19:55:18;;;;;;;30.77;23.08;;;14.60;83.10;;;;;;6183977;23;20009;-71
2022/11/12 19:57:44;;;;;;;30.70;22.02;;;14.50;82.90;;;;;;6183863;23;20312;-69
2022/11/12 20:00:11;;;;;;;36.33;22.33;;;14.50;83.10;;;;;;6185867;23;20001;-71
2022/11/12 20:02:36;;;;;;;34.75;23.17;;;14.50;83.40;;;;;;6185724;23;20004;-70
2022/11/12 20:05:03;;;;;;;41.53;22.52;;;14.40;83.20;;;;;;6183867;23;20009;-69
2022/11/12 20:07:29;;;;;;;35.83;23.00;;;14.40;83.40;;;;;;6184233;23;20338;-75
2022/11/12 20:09:54;;;;;;;33.63;23.50;;;14.50;83.60;;;;;;6185595;23;20001;-69
2022/11/12 20:12:20;;;;;;;34.13;23.88;;;14.50;83.60;;;;;;6183998;23;20021;-70
2022/11/12 20:14:47;;;;;;;35.35;23.52;;;14.50;83.70;;;;;;6183921;23;20024;-72
2022/11/12 20:17:13;;;;;;;39.58;23.88;;;14.50;83.60;;;;;;6183977;23;20346;-71
2022/11/12 20:19:38;;;;;;;39.70;24.33;;;14.40;83.60;;;;;;6185532;23;20068;-72
2022/11/12 20:22:04;;;;;;;39.53;25.38;;;14.40;83.60;;;;;;6185508;23;20322;-70
2022/11/12 20:24:30;;;;;;;36.33;25.23;;;14.40;83.80;;;;;;6185692;23;20008;-70
2022/11/12 20:26:55;;;;;;;38.22;25.75;;;14.40;84.20;;;;;;6185749;23;20004;-70
2022/11/12 20:29:21;;;;;;;39.38;26.20;;;14.30;84.00;;;;;;6183887;23;20518;-72
2022/11/12 20:31:47;;;;;;;37.45;25.10;;;14.30;84.30;;;;;;6183805;23;20045;-70
2022/11/12 20:34:12;;;;;;;38.03;24.98;;;14.30;84.30;;;;;;6183688;23;20001;-70
2022/11/12 20:36:38;;;;;;;42.83;26.17;;;14.30;84.30;;;;;;6185432;23;20015;-71
2022/11/12 20:39:04;;;;;;;33.10;23.70;;;14.30;84.50;;;;;;6183893;23;20001;-71
2022/11/12 20:41:30;;;;;;;35.65;23.80;;;14.30;85.00;;;;;;6185579;23;20005;-71
2022/11/12 20:43:59;;;;;;;37.80;23.58;;;14.30;84.60;;;;;;6185674;23;20001;-71
2022/11/12 20:46:25;;;;;;;36.97;24.45;;;14.20;84.80;;;;;;6183868;23;20013;-71
2022/11/12 20:48:54;;;;;;;39.40;24.90;;;14.20;85.10;;;;;;6185476;23;20001;-72
2022/11/12 20:51:25;;;;;;;34.92;24.02;;;14.20;85.50;;;;;;6184138;23;20277;-72
2022/11/12 20:53:52;;;;;;;32.85;24.23;;;14.20;85.40;;;;;;6184316;23;20326;-74
2022/11/12 20:56:23;;;;;;;37.63;24.83;;;14.20;85.20;;;;;;6185024;23;20017;-74
2022/11/12 20:58:50;;;;;;;33.58;24.80;;;14.10;85.40;;;;;;6184310;23;20008;-73
2022/11/12 21:01:18;;;;;;;38.67;24.00;;;14.20;85.70;;;;;;6183895;23;20011;-72
2022/11/12 21:03:45;;;;;;;35.63;25.08;;;14.20;85.70;;;;;;6185642;23;20003;-74
2022/11/12 21:06:16;;;;;;;36.25;25.85;;;14.10;85.60;;;;;;6183651;23;20092;-73
2022/11/12 21:08:42;;;;;;;35.42;24.52;;;14.20;85.90;;;;;;6185087;23;20005;-74
2022/11/12 21:11:11;;;;;;;33.05;24.33;;;14.10;85.90;;;;;;6185009;23;20016;-74
2022/11/12 21:13:38;;;;;;;41.50;25.92;;;14.10;85.90;;;;;;6185550;23;20005;-74
2022/11/12 21:16:05;;;;;;;39.47;26.13;;;14.10;85.80;;;;;;6185658;23;20005;-74
2022/11/12 21:18:31;;;;;;;36.58;25.35;;;14.10;86.00;;;;;;6183644;23;20001;-72
2022/11/12 21:21:02;;;;;;;41.28;25.42;;;14.00;86.10;;;;;;6184647;23;20179;-72
2022/11/12 21:23:29;;;;;;;39.65;25.58;;;14.00;86.50;;;;;;6183531;23;20468;-72
2022/11/12 21:26:03;;;;;;;40.38;27.95;;;13.90;86.50;;;;;;6185154;23;20009;-72
2022/11/12 21:28:29;;;;;;;39.17;25.05;;;13.90;86.60;;;;;;6183404;23;20009;-74
2022/11/12 21:31:01;;;;;;;34.80;25.10;;;13.80;86.70;;;;;;6184508;23;20009;-72
2022/11/12 21:33:27;;;;;;;33.67;24.42;;;13.70;86.80;;;;;;6183087;23;20001;-74
2022/11/12 21:35:53;;;;;;;36.80;24.58;;;13.70;86.90;;;;;;6182735;23;20016;-74
2022/11/12 21:38:18;;;;;;;33.47;24.25;;;13.80;87.00;;;;;;6183044;23;20075;-72
2022/11/12 21:40:44;;;;;;;37.03;24.20;;;13.80;87.10;;;;;;6184634;23;20387;-73
2022/11/12 21:43:09;;;;;;;33.58;23.45;;;13.80;86.80;;;;;;6182532;23;20330;-70
2022/11/12 21:45:35;;;;;;;32.00;23.92;;;13.70;86.80;;;;;;6183054;23;20389;-72
2022/11/12 21:48:01;;;;;;;31.85;23.70;;;13.70;86.90;;;;;;6183970;23;20001;-76
2022/11/12 21:50:27;;;;;;;34.95;24.95;;;13.70;87.10;;;;;;6184687;23;20017;-77
2022/11/12 21:52:55;;;;;;;34.25;24.10;;;13.70;87.00;;;;;;6184696;23;20001;-75
2022/11/12 21:55:21;;;;;;;31.42;23.20;;;13.70;87.10;;;;;;6183005;23;20017;-76
2022/11/12 21:57:46;;;;;;;35.83;24.10;;;13.70;86.90;;;;;;6184674;23;20308;-77
2022/11/12 22:00:13;;;;;;;36.80;24.67;;;13.60;87.00;;;;;;6184552;23;20052;-75
2022/11/12 22:02:39;;;;;;;34.75;25.02;;;13.60;87.10;;;;;;6185424;23;20318;-75
2022/11/12 22:05:05;;;;;;;40.58;27.65;;;13.60;87.20;;;;;;6184589;23;20005;-75
2022/11/12 22:07:30;;;;;;;37.13;24.75;;;13.60;87.30;;;;;;6184639;23;20359;-76
2022/11/12 22:09:56;;;;;;;33.35;23.83;;;13.50;87.30;;;;;;6182585;23;20446;-76
2022/11/12 22:12:22;;;;;;;37.47;24.58;;;13.60;87.20;;;;;;6183565;23;20087;-76
2022/11/12 22:14:47;;;;;;;34.28;24.58;;;13.50;87.20;;;;;;6184450;23;20013;-73
2022/11/12 22:17:13;;;;;;;32.92;24.00;;;13.50;87.30;;;;;;6184473;23;20072;-72
2022/11/12 22:19:39;;;;;;;34.00;23.75;;;13.40;87.20;;;;;;6184303;23;19997;-74
2022/11/12 22:22:04;;;;;;;30.08;23.08;;;13.40;87.10;;;;;;6182817;23;20001;-72
2022/11/12 22:24:30;;;;;;;31.38;23.13;;;13.40;87.00;;;;;;6182642;23;20155;-72
2022/11/12 22:26:56;;;;;;;35.15;23.17;;;13.30;86.50;;;;;;6182612;23;20000;-72
2022/11/12 22:29:21;;;;;;;32.67;23.80;;;13.20;86.70;;;;;;6182826;23;20009;-73
2022/11/12 22:31:47;;;;;;;32.38;24.10;;;13.20;86.70;;;;;;6184006;23;20048;-74
2022/11/12 22:34:13;;;;;;;37.50;23.98;;;13.20;86.70;;;;;;6184061;23;20330;-74
2022/11/12 22:36:38;;;;;;;41.03;25.45;;;13.20;86.50;;;;;;6182829;23;20009;-73
2022/11/12 22:39:04;;;;;;;38.13;24.60;;;13.10;86.60;;;;;;6182641;23;20009;-73
2022/11/12 22:41:31;;;;;;;36.13;23.77;;;13.10;86.50;;;;;;6182794;23;20027;-73
2022/11/12 22:44:01;;;;;;;32.90;22.83;;;13.00;86.60;;;;;;6182800;23;20009;-72
2022/11/12 22:46:29;;;;;;;30.10;22.50;;;13.00;86.80;;;;;;6182554;23;20012;-73
2022/11/12 22:48:55;;;;;;;31.30;22.15;;;13.00;86.70;;;;;;6183994;23;20005;-72
2022/11/12 22:51:24;;;;;;;30.10;22.25;;;13.00;86.90;;;;;;6182345;23;20074;-73
2022/11/12 22:53:59;;;;;;;32.22;22.45;;;13.00;86.80;;;;;;6184437;23;20040;-74
2022/11/12 22:56:26;;;;;;;29.85;20.98;;;13.00;86.30;;;;;;6184343;23;20011;-74
2022/11/12 22:58:52;;;;;;;29.67;22.02;;;13.00;86.70;;;;;;6182494;23;20020;-72
2022/11/12 23:01:29;;;;;;;30.55;20.35;;;13.10;86.50;;;;;;6184373;23;20398;-71
2022/11/12 23:03:57;;;;;;;28.90;21.25;;;13.10;85.80;;;;;;6184103;23;20056;-73
2022/11/12 23:06:23;;;;;;;29.52;21.08;;;13.10;86.10;;;;;;6182436;23;20009;-73
2022/11/12 23:08:49;;;;;;;30.25;21.05;;;13.10;86.00;;;;;;6184095;23;20338;-72
2022/11/12 23:11:18;;;;;;;31.13;21.33;;;13.00;86.10;;;;;;6183676;23;20009;-73
2022/11/12 23:13:44;;;;;;;28.25;20.00;;;13.10;86.20;;;;;;6182020;23;20075;-72
2022/11/12 23:16:15;;;;;;;30.67;21.50;;;13.10;86.00;;;;;;6184129;23;20065;-74
2022/11/12 23:18:42;;;;;;;28.75;21.65;;;13.00;86.00;;;;;;6182424;23;20098;-72
2022/11/12 23:21:13;;;;;;;30.92;21.92;;;13.00;85.70;;;;;;6182689;23;20005;-73
2022/11/12 23:23:39;;;;;;;27.33;20.67;;;13.00;86.00;;;;;;6184379;23;20477;-73
2022/11/12 23:26:08;;;;;;;29.50;21.35;;;13.00;85.90;;;;;;6184339;23;20000;-72
2022/11/12 23:28:34;;;;;;;29.25;21.02;;;13.00;85.90;;;;;;6183999;23;20506;-73
2022/11/12 23:31:01;;;;;;;26.83;20.25;;;13.00;85.90;;;;;;6184474;23;20032;-71
2022/11/12 23:33:27;;;;;;;30.55;20.60;;;13.00;85.90;;;;;;6185327;23;20001;-72
2022/11/12 23:35:53;;;;;;;28.52;20.63;;;13.00;85.80;;;;;;6184392;23;20009;-70
2022/11/12 23:38:18;;;;;;;27.60;19.95;;;13.10;85.70;;;;;;6182481;23;20342;-72
2022/11/12 23:40:54;;;;;;;28.70;19.83;;;13.10;85.50;;;;;;6182405;23;20009;-73
2022/11/12 23:43:20;;;;;;;24.05;18.42;;;13.10;85.40;;;;;;6182476;23;20001;-72
2022/11/12 23:45:51;;;;;;;27.92;18.45;;;13.10;85.40;;;;;;6185943;23;20059;-73
2022/11/12 23:48:17;;;;;;;30.95;18.33;;;13.10;84.60;;;;;;6185869;23;20107;-71
2022/11/12 23:50:45;;;;;;;30.35;18.10;;;13.00;84.50;;;;;;6185790;23;20016;-73
2022/11/12 23:53:11;;;;;;;25.65;18.17;;;12.90;84.70;;;;;;6186023;23;19997;-72
2022/11/12 23:55:37;;;;;;;25.40;17.40;;;12.90;84.70;;;;;;6185816;23;20008;-73
2022/11/12 23:58:03;;;;;;;23.50;17.30;;;12.90;84.60;;;;;;6185969;23;20040;-72
